Elgin, IL

4:45 AM CST on January 26, 2015 (GMT -0600)
SLEEPY HOLLOW | Change Station
CLOSE
Current Station
Personal Weather Station
Location: Sleepy Hollow, IL
Elevation: 879 ft
Nearby Weather Stations

Elev 879 ft 42.09 °N, 88.33 °W | Updated 3 seconds ago

Mostly Cloudy
Mostly Cloudy
11.9 °F
Feels Like 12 °F
N
0.0
Wind Variable Wind from SW
Gusts 0.0 mph

Today
High -- | Low -- °F
--% Chance of Precip.
Yesterday
High -- | Low -- °F
Precip. -- in
7:11 AM 5:00 PM
Waxing Crescent, 42% visible
Pressure 30.01 in
Visibility 10.0 miles
Clouds Few 2000 ft
Windchill 12 °F
Dew Point 8 °F
Humidity 84%
Rainfall 0.00 in
Snow Depth Not available.
UV 0 out of 12
Pollen .10 out of 12
Air Quality Not available.
Flu Activity Not available.
METAR KDPA 260952Z 33004KT 10SM FEW020 M09/M12 A2997 RMK AO2 SLP161 T10941122

More Conditions Fewer Conditions

Pressure 30.01 in
Visibility 10.0 miles
Clouds Few 2000 ft
Windchill 12 °F
Dew Point 8 °F
Humidity 84%
Rainfall 0.00 in
Snow Depth Not available.
UV 0 out of 12
Pollen .10 out of 12
Air Quality Not available.
Flu Activity Not available.
METAR KDPA 260952Z 33004KT 10SM FEW020 M09/M12 A2997 RMK AO2 SLP161 T10941122

More Conditions Fewer Conditions

10-Day Weather Forecast

Almanac

Astronomy

Jan. 26, 2015 Rise Set
Actual Time
Civil Twilight
Nautical Twilight
Astronomical Twilight
Moon
Length of Visible Light
Length of Day
Tomorrow will be .
, % of the Moon is Illuminated

Today's Extremes

State Highs State Lows

Community

WunderPhotos

Upload Photos

1,790,172 photos uploaded!

WunderBlogs® & News

Nearby

Air Quality

  Air Quality AQ Index Pollutant
Not available.

Snow Depth

Station Depth Elevation

Earthquake Activity

City Distance Mag. Time & Date
Minimum magnitude displayed is 2.5.

Coastal Water Temperatures

Place Temperature

Nearby Weather Stations